sensor_id;sensor_type;location;lat;lon;timestamp;P1;durP1;ratioP1;P2;durP2;ratioP2
31872;SDS011;22407;42.820;23.374;2023-06-24T00:00:24;17.45;;;10.52;;
31872;SDS011;22407;42.820;23.374;2023-06-24T00:02:49;19.30;;;10.20;;
31872;SDS011;22407;42.820;23.374;2023-06-24T00:05:16;18.05;;;10.32;;
31872;SDS011;22407;42.820;23.374;2023-06-24T00:07:41;20.10;;;10.57;;
31872;SDS011;22407;42.820;23.374;2023-06-24T00:10:10;16.80;;;9.63;;
31872;SDS011;22407;42.820;23.374;2023-06-24T00:12:35;16.40;;;9.23;;
31872;SDS011;22407;42.820;23.374;2023-06-24T00:15:00;15.80;;;8.60;;
31872;SDS011;22407;42.820;23.374;2023-06-24T00:17:26;15.60;;;8.77;;
31872;SDS011;22407;42.820;23.374;2023-06-24T00:19:53;16.40;;;8.17;;
31872;SDS011;22407;42.820;23.374;2023-06-24T00:22:19;16.20;;;8.27;;
31872;SDS011;22407;42.820;23.374;2023-06-24T00:24:45;14.77;;;8.30;;
31872;SDS011;22407;42.820;23.374;2023-06-24T00:27:10;14.70;;;8.53;;
31872;SDS011;22407;42.820;23.374;2023-06-24T00:29:35;17.07;;;8.40;;
31872;SDS011;22407;42.820;23.374;2023-06-24T00:32:01;13.95;;;8.10;;
31872;SDS011;22407;42.820;23.374;2023-06-24T00:34:26;20.50;;;9.33;;
31872;SDS011;22407;42.820;23.374;2023-06-24T00:36:51;14.87;;;8.83;;
31872;SDS011;22407;42.820;23.374;2023-06-24T00:39:17;16.97;;;9.10;;
31872;SDS011;22407;42.820;23.374;2023-06-24T00:41:42;16.45;;;9.00;;
31872;SDS011;22407;42.820;23.374;2023-06-24T00:44:08;16.93;;;9.07;;
31872;SDS011;22407;42.820;23.374;2023-06-24T00:46:33;18.03;;;9.30;;
31872;SDS011;22407;42.820;23.374;2023-06-24T00:48:59;16.45;;;9.35;;
31872;SDS011;22407;42.820;23.374;2023-06-24T00:51:27;16.40;;;9.55;;
31872;SDS011;22407;42.820;23.374;2023-06-24T00:53:58;16.90;;;9.67;;
31872;SDS011;22407;42.820;23.374;2023-06-24T00:56:25;18.63;;;10.25;;
31872;SDS011;22407;42.820;23.374;2023-06-24T00:58:53;17.13;;;9.80;;
31872;SDS011;22407;42.820;23.374;2023-06-24T01:01:19;15.50;;;9.68;;
31872;SDS011;22407;42.820;23.374;2023-06-24T01:03:45;16.08;;;9.77;;
31872;SDS011;22407;42.820;23.374;2023-06-24T01:06:11;17.60;;;10.33;;
31872;SDS011;22407;42.820;23.374;2023-06-24T01:08:36;19.85;;;10.90;;
31872;SDS011;22407;42.820;23.374;2023-06-24T01:11:02;17.37;;;10.07;;
31872;SDS011;22407;42.820;23.374;2023-06-24T01:13:27;21.00;;;9.90;;
31872;SDS011;22407;42.820;23.374;2023-06-24T01:15:53;18.93;;;11.10;;
31872;SDS011;22407;42.820;23.374;2023-06-24T01:20:44;21.20;;;12.03;;
31872;SDS011;22407;42.820;23.374;2023-06-24T01:23:31;21.03;;;12.20;;
31872;SDS011;22407;42.820;23.374;2023-06-24T01:36:27;20.58;;;11.32;;
31872;SDS011;22407;42.820;23.374;2023-06-24T01:38:58;19.43;;;12.40;;
31872;SDS011;22407;42.820;23.374;2023-06-24T01:41:26;19.83;;;11.77;;
31872;SDS011;22407;42.820;23.374;2023-06-24T01:43:56;20.48;;;12.60;;
31872;SDS011;22407;42.820;23.374;2023-06-24T01:46:22;21.07;;;12.33;;
31872;SDS011;22407;42.820;23.374;2023-06-24T01:48:47;20.93;;;12.70;;
31872;SDS011;22407;42.820;23.374;2023-06-24T01:51:15;21.30;;;12.45;;
31872;SDS011;22407;42.820;23.374;2023-06-24T01:53:44;22.58;;;13.00;;
31872;SDS011;22407;42.820;23.374;2023-06-24T01:56:10;20.75;;;11.65;;
31872;SDS011;22407;42.820;23.374;2023-06-24T01:58:36;19.50;;;12.40;;
31872;SDS011;22407;42.820;23.374;2023-06-24T02:01:02;19.98;;;12.30;;
31872;SDS011;22407;42.820;23.374;2023-06-24T02:03:28;20.52;;;12.82;;
31872;SDS011;22407;42.820;23.374;2023-06-24T02:05:53;23.67;;;14.00;;
31872;SDS011;22407;42.820;23.374;2023-06-24T02:08:20;23.52;;;13.18;;
31872;SDS011;22407;42.820;23.374;2023-06-24T02:10:46;23.13;;;13.20;;
31872;SDS011;22407;42.820;23.374;2023-06-24T02:13:12;22.38;;;13.82;;
31872;SDS011;22407;42.820;23.374;2023-06-24T02:15:38;22.17;;;13.13;;
31872;SDS011;22407;42.820;23.374;2023-06-24T02:18:04;23.33;;;14.10;;
31872;SDS011;22407;42.820;23.374;2023-06-24T02:20:31;23.02;;;14.90;;
31872;SDS011;22407;42.820;23.374;2023-06-24T02:22:56;22.60;;;13.83;;
31872;SDS011;22407;42.820;23.374;2023-06-24T02:25:22;24.30;;;13.05;;
31872;SDS011;22407;42.820;23.374;2023-06-24T02:27:48;24.95;;;13.98;;
31872;SDS011;22407;42.820;23.374;2023-06-24T02:30:14;21.70;;;13.77;;
31872;SDS011;22407;42.820;23.374;2023-06-24T02:32:40;22.17;;;12.87;;
31872;SDS011;22407;42.820;23.374;2023-06-24T02:35:05;21.80;;;13.20;;
31872;SDS011;22407;42.820;23.374;2023-06-24T02:37:32;22.15;;;13.00;;
31872;SDS011;22407;42.820;23.374;2023-06-24T02:39:57;20.80;;;12.77;;
31872;SDS011;22407;42.820;23.374;2023-06-24T02:42:23;20.73;;;12.70;;
31872;SDS011;22407;42.820;23.374;2023-06-24T02:44:48;23.53;;;12.50;;
31872;SDS011;22407;42.820;23.374;2023-06-24T02:47:13;21.50;;;12.97;;
31872;SDS011;22407;42.820;23.374;2023-06-24T02:49:39;22.25;;;13.43;;
31872;SDS011;22407;42.820;23.374;2023-06-24T02:52:05;21.70;;;13.60;;
31872;SDS011;22407;42.820;23.374;2023-06-24T02:54:30;21.50;;;12.63;;
31872;SDS011;22407;42.820;23.374;2023-06-24T02:56:56;22.53;;;13.07;;
31872;SDS011;22407;42.820;23.374;2023-06-24T02:59:23;21.88;;;12.48;;
31872;SDS011;22407;42.820;23.374;2023-06-24T03:01:48;23.77;;;12.80;;
31872;SDS011;22407;42.820;23.374;2023-06-24T03:04:14;22.30;;;13.30;;
31872;SDS011;22407;42.820;23.374;2023-06-24T03:06:39;21.53;;;12.43;;
31872;SDS011;22407;42.820;23.374;2023-06-24T03:09:05;21.73;;;12.77;;
31872;SDS011;22407;42.820;23.374;2023-06-24T03:11:39;23.70;;;12.50;;
31872;SDS011;22407;42.820;23.374;2023-06-24T03:14:04;21.63;;;13.20;;
31872;SDS011;22407;42.820;23.374;2023-06-24T03:16:29;22.17;;;12.77;;
31872;SDS011;22407;42.820;23.374;2023-06-24T03:18:55;23.77;;;12.87;;
31872;SDS011;22407;42.820;23.374;2023-06-24T03:21:20;22.07;;;13.00;;
31872;SDS011;22407;42.820;23.374;2023-06-24T03:23:46;20.67;;;12.32;;
31872;SDS011;22407;42.820;23.374;2023-06-24T03:26:11;21.17;;;12.63;;
31872;SDS011;22407;42.820;23.374;2023-06-24T03:28:36;22.47;;;12.33;;
31872;SDS011;22407;42.820;23.374;2023-06-24T03:31:03;21.33;;;11.63;;
31872;SDS011;22407;42.820;23.374;2023-06-24T03:33:28;21.43;;;12.17;;
31872;SDS011;22407;42.820;23.374;2023-06-24T03:35:54;20.43;;;11.93;;
31872;SDS011;22407;42.820;23.374;2023-06-24T03:38:19;22.88;;;13.07;;
31872;SDS011;22407;42.820;23.374;2023-06-24T03:40:46;23.02;;;13.43;;
31872;SDS011;22407;42.820;23.374;2023-06-24T03:43:11;21.17;;;12.10;;
31872;SDS011;22407;42.820;23.374;2023-06-24T03:45:36;23.00;;;13.27;;
31872;SDS011;22407;42.820;23.374;2023-06-24T03:48:02;20.03;;;12.57;;
31872;SDS011;22407;42.820;23.374;2023-06-24T03:50:27;21.43;;;12.33;;
31872;SDS011;22407;42.820;23.374;2023-06-24T03:52:52;19.97;;;12.10;;
31872;SDS011;22407;42.820;23.374;2023-06-24T03:55:17;22.20;;;12.80;;
31872;SDS011;22407;42.820;23.374;2023-06-24T03:57:43;21.40;;;12.45;;
31872;SDS011;22407;42.820;23.374;2023-06-24T04:00:08;19.60;;;12.07;;
31872;SDS011;22407;42.820;23.374;2023-06-24T04:02:39;21.53;;;12.27;;
31872;SDS011;22407;42.820;23.374;2023-06-24T04:05:06;21.10;;;12.18;;
31872;SDS011;22407;42.820;23.374;2023-06-24T04:07:32;22.37;;;12.90;;
31872;SDS011;22407;42.820;23.374;2023-06-24T04:09:57;22.73;;;11.97;;
31872;SDS011;22407;42.820;23.374;2023-06-24T04:12:23;19.73;;;12.43;;
31872;SDS011;22407;42.820;23.374;2023-06-24T04:14:48;21.20;;;12.23;;
31872;SDS011;22407;42.820;23.374;2023-06-24T04:17:14;22.50;;;12.90;;
31872;SDS011;22407;42.820;23.374;2023-06-24T04:19:39;20.40;;;13.27;;
31872;SDS011;22407;42.820;23.374;2023-06-24T04:22:05;21.17;;;13.43;;
31872;SDS011;22407;42.820;23.374;2023-06-24T04:24:30;26.03;;;14.57;;
31872;SDS011;22407;42.820;23.374;2023-06-24T04:26:56;24.15;;;14.40;;
31872;SDS011;22407;42.820;23.374;2023-06-24T04:29:21;24.97;;;16.03;;
31872;SDS011;22407;42.820;23.374;2023-06-24T04:31:46;27.93;;;15.20;;
31872;SDS011;22407;42.820;23.374;2023-06-24T04:34:11;24.53;;;14.50;;
31872;SDS011;22407;42.820;23.374;2023-06-24T04:36:37;24.70;;;14.97;;
31872;SDS011;22407;42.820;23.374;2023-06-24T04:39:03;24.10;;;14.23;;
31872;SDS011;22407;42.820;23.374;2023-06-24T04:41:29;22.77;;;13.40;;
31872;SDS011;22407;42.820;23.374;2023-06-24T04:43:54;24.33;;;13.43;;
31872;SDS011;22407;42.820;23.374;2023-06-24T04:46:19;24.80;;;14.33;;
31872;SDS011;22407;42.820;23.374;2023-06-24T04:48:45;22.93;;;13.10;;
31872;SDS011;22407;42.820;23.374;2023-06-24T04:51:10;25.83;;;14.33;;
31872;SDS011;22407;42.820;23.374;2023-06-24T04:53:35;23.00;;;14.63;;
31872;SDS011;22407;42.820;23.374;2023-06-24T04:56:01;25.07;;;14.67;;
31872;SDS011;22407;42.820;23.374;2023-06-24T04:58:26;23.53;;;14.13;;
31872;SDS011;22407;42.820;23.374;2023-06-24T05:00:51;23.67;;;14.00;;
31872;SDS011;22407;42.820;23.374;2023-06-24T05:03:16;24.37;;;14.37;;
31872;SDS011;22407;42.820;23.374;2023-06-24T05:05:42;24.77;;;14.50;;
31872;SDS011;22407;42.820;23.374;2023-06-24T05:08:07;22.67;;;13.87;;
31872;SDS011;22407;42.820;23.374;2023-06-24T05:10:32;23.43;;;13.77;;
31872;SDS011;22407;42.820;23.374;2023-06-24T05:12:57;26.13;;;14.20;;
31872;SDS011;22407;42.820;23.374;2023-06-24T05:15:23;24.13;;;14.47;;
31872;SDS011;22407;42.820;23.374;2023-06-24T05:17:48;24.30;;;14.00;;
31872;SDS011;22407;42.820;23.374;2023-06-24T05:20:13;23.47;;;14.80;;
31872;SDS011;22407;42.820;23.374;2023-06-24T05:22:39;23.40;;;13.90;;
31872;SDS011;22407;42.820;23.374;2023-06-24T05:25:04;24.07;;;14.37;;
31872;SDS011;22407;42.820;23.374;2023-06-24T05:27:29;24.20;;;13.60;;
31872;SDS011;22407;42.820;23.374;2023-06-24T05:29:55;23.03;;;14.40;;
31872;SDS011;22407;42.820;23.374;2023-06-24T05:32:20;23.50;;;13.93;;
31872;SDS011;22407;42.820;23.374;2023-06-24T05:34:46;21.53;;;14.07;;
31872;SDS011;22407;42.820;23.374;2023-06-24T05:37:11;23.37;;;13.80;;
31872;SDS011;22407;42.820;23.374;2023-06-24T05:39:36;26.73;;;14.03;;
31872;SDS011;22407;42.820;23.374;2023-06-24T05:42:02;22.83;;;13.53;;
31872;SDS011;22407;42.820;23.374;2023-06-24T05:44:27;21.73;;;14.03;;
31872;SDS011;22407;42.820;23.374;2023-06-24T05:46:52;20.77;;;13.37;;
31872;SDS011;22407;42.820;23.374;2023-06-24T05:49:17;23.97;;;14.30;;
31872;SDS011;22407;42.820;23.374;2023-06-24T05:51:43;25.27;;;13.47;;
31872;SDS011;22407;42.820;23.374;2023-06-24T05:54:08;21.70;;;13.00;;
31872;SDS011;22407;42.820;23.374;2023-06-24T05:56:33;20.83;;;13.43;;
31872;SDS011;22407;42.820;23.374;2023-06-24T05:58:59;21.17;;;12.87;;
31872;SDS011;22407;42.820;23.374;2023-06-24T06:01:24;21.47;;;13.17;;
31872;SDS011;22407;42.820;23.374;2023-06-24T06:03:49;20.30;;;13.43;;
31872;SDS011;22407;42.820;23.374;2023-06-24T06:06:15;23.37;;;14.07;;
31872;SDS011;22407;42.820;23.374;2023-06-24T06:08:40;21.47;;;13.60;;
31872;SDS011;22407;42.820;23.374;2023-06-24T06:11:05;21.30;;;13.23;;
31872;SDS011;22407;42.820;23.374;2023-06-24T06:13:31;20.57;;;12.97;;
31872;SDS011;22407;42.820;23.374;2023-06-24T06:15:57;22.77;;;12.97;;
31872;SDS011;22407;42.820;23.374;2023-06-24T06:18:22;21.55;;;12.65;;
31872;SDS011;22407;42.820;23.374;2023-06-24T06:20:48;20.03;;;12.90;;
31872;SDS011;22407;42.820;23.374;2023-06-24T06:23:13;18.50;;;11.93;;
31872;SDS011;22407;42.820;23.374;2023-06-24T06:25:38;25.20;;;12.73;;
31872;SDS011;22407;42.820;23.374;2023-06-24T06:28:04;20.03;;;12.57;;
31872;SDS011;22407;42.820;23.374;2023-06-24T06:30:29;20.03;;;12.43;;
31872;SDS011;22407;42.820;23.374;2023-06-24T06:32:54;18.58;;;12.00;;
31872;SDS011;22407;42.820;23.374;2023-06-24T06:35:19;18.13;;;12.13;;
31872;SDS011;22407;42.820;23.374;2023-06-24T06:37:45;19.80;;;11.57;;
31872;SDS011;22407;42.820;23.374;2023-06-24T06:40:12;18.30;;;12.33;;
31872;SDS011;22407;42.820;23.374;2023-06-24T06:42:38;20.15;;;12.25;;
31872;SDS011;22407;42.820;23.374;2023-06-24T06:45:03;17.07;;;11.90;;
31872;SDS011;22407;42.820;23.374;2023-06-24T06:47:28;20.10;;;11.83;;
31872;SDS011;22407;42.820;23.374;2023-06-24T06:49:54;19.47;;;11.63;;
31872;SDS011;22407;42.820;23.374;2023-06-24T06:52:19;16.77;;;11.07;;
31872;SDS011;22407;42.820;23.374;2023-06-24T06:54:45;17.30;;;10.97;;
31872;SDS011;22407;42.820;23.374;2023-06-24T06:57:10;19.13;;;11.67;;
31872;SDS011;22407;42.820;23.374;2023-06-24T06:59:35;18.97;;;12.30;;
31872;SDS011;22407;42.820;23.374;2023-06-24T07:02:01;19.33;;;11.23;;
31872;SDS011;22407;42.820;23.374;2023-06-24T07:04:26;20.10;;;11.80;;
31872;SDS011;22407;42.820;23.374;2023-06-24T07:06:51;17.30;;;11.40;;
31872;SDS011;22407;42.820;23.374;2023-06-24T07:09:18;17.10;;;11.27;;
31872;SDS011;22407;42.820;23.374;2023-06-24T07:11:43;15.98;;;11.52;;
31872;SDS011;22407;42.820;23.374;2023-06-24T07:14:08;17.37;;;11.00;;
31872;SDS011;22407;42.820;23.374;2023-06-24T07:16:34;14.53;;;9.27;;
31872;SDS011;22407;42.820;23.374;2023-06-24T07:18:59;13.50;;;9.03;;
31872;SDS011;22407;42.820;23.374;2023-06-24T07:21:24;13.87;;;8.80;;
31872;SDS011;22407;42.820;23.374;2023-06-24T07:23:50;16.43;;;9.60;;
31872;SDS011;22407;42.820;23.374;2023-06-24T07:26:15;13.40;;;8.70;;
31872;SDS011;22407;42.820;23.374;2023-06-24T07:28:40;13.40;;;8.90;;
31872;SDS011;22407;42.820;23.374;2023-06-24T07:31:06;14.33;;;9.40;;
31872;SDS011;22407;42.820;23.374;2023-06-24T07:33:31;14.43;;;8.40;;
31872;SDS011;22407;42.820;23.374;2023-06-24T07:35:56;13.73;;;9.23;;
31872;SDS011;22407;42.820;23.374;2023-06-24T07:38:22;17.95;;;9.10;;
31872;SDS011;22407;42.820;23.374;2023-06-24T07:40:47;14.60;;;8.57;;
31872;SDS011;22407;42.820;23.374;2023-06-24T07:43:13;15.23;;;8.70;;
31872;SDS011;22407;42.820;23.374;2023-06-24T07:45:38;13.67;;;8.77;;
31872;SDS011;22407;42.820;23.374;2023-06-24T07:48:03;13.65;;;8.65;;
31872;SDS011;22407;42.820;23.374;2023-06-24T07:50:30;12.67;;;9.13;;
31872;SDS011;22407;42.820;23.374;2023-06-24T07:52:56;13.85;;;8.98;;
31872;SDS011;22407;42.820;23.374;2023-06-24T07:55:21;13.20;;;9.37;;
31872;SDS011;22407;42.820;23.374;2023-06-24T07:57:46;13.37;;;8.60;;
31872;SDS011;22407;42.820;23.374;2023-06-24T08:00:12;14.90;;;8.97;;
31872;SDS011;22407;42.820;23.374;2023-06-24T08:02:38;14.17;;;8.60;;
31872;SDS011;22407;42.820;23.374;2023-06-24T08:05:03;13.23;;;8.63;;
31872;SDS011;22407;42.820;23.374;2023-06-24T08:07:28;14.30;;;9.07;;
31872;SDS011;22407;42.820;23.374;2023-06-24T08:09:54;14.73;;;9.07;;
31872;SDS011;22407;42.820;23.374;2023-06-24T08:12:19;14.43;;;8.83;;
31872;SDS011;22407;42.820;23.374;2023-06-24T08:14:44;14.07;;;8.70;;
31872;SDS011;22407;42.820;23.374;2023-06-24T08:17:09;13.77;;;8.97;;
31872;SDS011;22407;42.820;23.374;2023-06-24T08:19:35;13.37;;;9.10;;
31872;SDS011;22407;42.820;23.374;2023-06-24T08:22:00;15.67;;;9.13;;
31872;SDS011;22407;42.820;23.374;2023-06-24T08:24:25;14.57;;;8.93;;
31872;SDS011;22407;42.820;23.374;2023-06-24T08:26:51;12.95;;;8.88;;
31872;SDS011;22407;42.820;23.374;2023-06-24T08:29:18;14.07;;;8.70;;
31872;SDS011;22407;42.820;23.374;2023-06-24T08:31:43;14.57;;;9.13;;
31872;SDS011;22407;42.820;23.374;2023-06-24T08:34:08;16.17;;;8.90;;
31872;SDS011;22407;42.820;23.374;2023-06-24T08:36:33;14.20;;;9.10;;
31872;SDS011;22407;42.820;23.374;2023-06-24T08:38:59;14.97;;;9.03;;
31872;SDS011;22407;42.820;23.374;2023-06-24T08:41:24;15.17;;;8.77;;
31872;SDS011;22407;42.820;23.374;2023-06-24T08:43:50;13.23;;;9.10;;
31872;SDS011;22407;42.820;23.374;2023-06-24T08:46:15;14.50;;;9.20;;
31872;SDS011;22407;42.820;23.374;2023-06-24T08:48:42;12.10;;;8.90;;
31872;SDS011;22407;42.820;23.374;2023-06-24T08:51:08;13.20;;;9.25;;
31872;SDS011;22407;42.820;23.374;2023-06-24T08:53:34;13.73;;;9.55;;
31872;SDS011;22407;42.820;23.374;2023-06-24T08:55:59;13.60;;;8.87;;
31872;SDS011;22407;42.820;23.374;2023-06-24T08:58:25;13.32;;;8.82;;
31872;SDS011;22407;42.820;23.374;2023-06-24T09:00:50;16.60;;;9.47;;
31872;SDS011;22407;42.820;23.374;2023-06-24T09:03:16;13.67;;;8.43;;
31872;SDS011;22407;42.820;23.374;2023-06-24T09:05:41;13.10;;;8.93;;
31872;SDS011;22407;42.820;23.374;2023-06-24T09:08:09;13.00;;;9.00;;
31872;SDS011;22407;42.820;23.374;2023-06-24T09:10:34;13.73;;;9.20;;
31872;SDS011;22407;42.820;23.374;2023-06-24T09:13:00;12.88;;;9.15;;
31872;SDS011;22407;42.820;23.374;2023-06-24T09:15:29;12.90;;;9.13;;
31872;SDS011;22407;42.820;23.374;2023-06-24T09:17:54;12.43;;;8.73;;
31872;SDS011;22407;42.820;23.374;2023-06-24T09:20:20;15.82;;;9.85;;
31872;SDS011;22407;42.820;23.374;2023-06-24T09:22:47;13.32;;;9.30;;
31872;SDS011;22407;42.820;23.374;2023-06-24T09:25:16;14.07;;;9.77;;
31872;SDS011;22407;42.820;23.374;2023-06-24T09:27:41;13.33;;;9.50;;
31872;SDS011;22407;42.820;23.374;2023-06-24T09:30:21;15.23;;;9.40;;
31872;SDS011;22407;42.820;23.374;2023-06-24T09:32:50;17.75;;;9.27;;
31872;SDS011;22407;42.820;23.374;2023-06-24T09:35:22;14.68;;;9.32;;
31872;SDS011;22407;42.820;23.374;2023-06-24T09:37:54;13.93;;;9.55;;
31872;SDS011;22407;42.820;23.374;2023-06-24T09:40:20;15.83;;;9.13;;
31872;SDS011;22407;42.820;23.374;2023-06-24T09:42:52;12.45;;;9.32;;
31872;SDS011;22407;42.820;23.374;2023-06-24T09:45:25;14.25;;;9.40;;
31872;SDS011;22407;42.820;23.374;2023-06-24T09:47:50;14.20;;;9.27;;
31872;SDS011;22407;42.820;23.374;2023-06-24T09:50:16;14.50;;;8.80;;
31872;SDS011;22407;42.820;23.374;2023-06-24T09:52:42;13.50;;;8.97;;
31872;SDS011;22407;42.820;23.374;2023-06-24T09:55:08;14.07;;;9.75;;
31872;SDS011;22407;42.820;23.374;2023-06-24T09:57:34;12.60;;;9.20;;
31872;SDS011;22407;42.820;23.374;2023-06-24T10:00:00;14.03;;;9.07;;
31872;SDS011;22407;42.820;23.374;2023-06-24T10:02:27;12.95;;;9.45;;
31872;SDS011;22407;42.820;23.374;2023-06-24T10:04:53;16.92;;;9.90;;
31872;SDS011;22407;42.820;23.374;2023-06-24T10:07:19;12.87;;;9.27;;
31872;SDS011;22407;42.820;23.374;2023-06-24T10:09:44;13.65;;;8.77;;
31872;SDS011;22407;42.820;23.374;2023-06-24T10:12:10;14.47;;;9.57;;
31872;SDS011;22407;42.820;23.374;2023-06-24T10:14:35;13.55;;;9.95;;
31872;SDS011;22407;42.820;23.374;2023-06-24T10:17:04;13.80;;;8.90;;
31872;SDS011;22407;42.820;23.374;2023-06-24T10:19:29;13.27;;;9.20;;
31872;SDS011;22407;42.820;23.374;2023-06-24T10:21:57;14.05;;;8.90;;
31872;SDS011;22407;42.820;23.374;2023-06-24T10:24:32;15.10;;;9.10;;
31872;SDS011;22407;42.820;23.374;2023-06-24T10:27:04;15.25;;;9.57;;
31872;SDS011;22407;42.820;23.374;2023-06-24T10:29:33;16.23;;;9.52;;
31872;SDS011;22407;42.820;23.374;2023-06-24T10:32:41;13.20;;;9.15;;
31872;SDS011;22407;42.820;23.374;2023-06-24T10:34:47;13.98;;;9.55;;
31872;SDS011;22407;42.820;23.374;2023-06-24T10:39:48;13.90;;;9.00;;
31872;SDS011;22407;42.820;23.374;2023-06-24T10:47:36;15.20;;;9.57;;
31872;SDS011;22407;42.820;23.374;2023-06-24T10:50:01;14.60;;;9.65;;
31872;SDS011;22407;42.820;23.374;2023-06-24T10:52:27;13.83;;;9.47;;
31872;SDS011;22407;42.820;23.374;2023-06-24T10:54:53;12.27;;;8.93;;
31872;SDS011;22407;42.820;23.374;2023-06-24T10:57:25;12.97;;;8.30;;
31872;SDS011;22407;42.820;23.374;2023-06-24T10:59:51;12.23;;;8.38;;
31872;SDS011;22407;42.820;23.374;2023-06-24T11:02:18;12.07;;;8.30;;
31872;SDS011;22407;42.820;23.374;2023-06-24T11:07:08;12.33;;;8.80;;
31872;SDS011;22407;42.820;23.374;2023-06-24T11:09:34;13.57;;;9.33;;
31872;SDS011;22407;42.820;23.374;2023-06-24T11:11:59;12.83;;;8.80;;
31872;SDS011;22407;42.820;23.374;2023-06-24T11:14:27;14.70;;;9.75;;
31872;SDS011;22407;42.820;23.374;2023-06-24T11:16:52;13.97;;;9.17;;
31872;SDS011;22407;42.820;23.374;2023-06-24T11:19:17;14.90;;;9.53;;
31872;SDS011;22407;42.820;23.374;2023-06-24T11:21:43;14.43;;;9.97;;
31872;SDS011;22407;42.820;23.374;2023-06-24T11:24:09;13.98;;;9.13;;
31872;SDS011;22407;42.820;23.374;2023-06-24T11:26:36;16.67;;;9.00;;
31872;SDS011;22407;42.820;23.374;2023-06-24T11:29:08;14.93;;;9.23;;
31872;SDS011;22407;42.820;23.374;2023-06-24T11:31:33;12.43;;;8.85;;
31872;SDS011;22407;42.820;23.374;2023-06-24T11:33:59;13.35;;;8.43;;
31872;SDS011;22407;42.820;23.374;2023-06-24T11:36:25;14.00;;;8.83;;
31872;SDS011;22407;42.820;23.374;2023-06-24T11:38:50;13.13;;;9.00;;
31872;SDS011;22407;42.820;23.374;2023-06-24T11:41:15;13.60;;;8.90;;
31872;SDS011;22407;42.820;23.374;2023-06-24T11:43:44;14.65;;;9.38;;
31872;SDS011;22407;42.820;23.374;2023-06-24T11:46:09;12.73;;;8.47;;
31872;SDS011;22407;42.820;23.374;2023-06-24T11:48:39;12.70;;;8.73;;
31872;SDS011;22407;42.820;23.374;2023-06-24T11:51:04;12.07;;;8.90;;
31872;SDS011;22407;42.820;23.374;2023-06-24T11:53:43;13.73;;;9.02;;
31872;SDS011;22407;42.820;23.374;2023-06-24T11:56:09;14.82;;;8.95;;
31872;SDS011;22407;42.820;23.374;2023-06-24T11:58:34;13.13;;;8.83;;
31872;SDS011;22407;42.820;23.374;2023-06-24T12:01:01;13.13;;;9.02;;
31872;SDS011;22407;42.820;23.374;2023-06-24T12:03:27;11.87;;;8.70;;
31872;SDS011;22407;42.820;23.374;2023-06-24T12:05:52;12.02;;;8.40;;
31872;SDS011;22407;42.820;23.374;2023-06-24T12:08:18;12.83;;;8.53;;
31872;SDS011;22407;42.820;23.374;2023-06-24T12:10:43;13.87;;;9.30;;
31872;SDS011;22407;42.820;23.374;2023-06-24T12:13:09;12.88;;;8.77;;
31872;SDS011;22407;42.820;23.374;2023-06-24T12:15:34;13.20;;;9.13;;
31872;SDS011;22407;42.820;23.374;2023-06-24T12:18:00;15.83;;;9.27;;
31872;SDS011;22407;42.820;23.374;2023-06-24T12:20:26;13.38;;;8.63;;
31872;SDS011;22407;42.820;23.374;2023-06-24T12:22:51;13.70;;;9.13;;
31872;SDS011;22407;42.820;23.374;2023-06-24T12:25:17;13.77;;;9.07;;
31872;SDS011;22407;42.820;23.374;2023-06-24T12:27:43;13.33;;;9.63;;
31872;SDS011;22407;42.820;23.374;2023-06-24T12:30:08;13.00;;;9.43;;
31872;SDS011;22407;42.820;23.374;2023-06-24T12:32:34;13.20;;;9.00;;
31872;SDS011;22407;42.820;23.374;2023-06-24T12:34:59;17.08;;;8.93;;
31872;SDS011;22407;42.820;23.374;2023-06-24T12:37:25;13.10;;;9.47;;
31872;SDS011;22407;42.820;23.374;2023-06-24T12:39:50;13.67;;;9.30;;
31872;SDS011;22407;42.820;23.374;2023-06-24T12:42:18;12.77;;;8.90;;
31872;SDS011;22407;42.820;23.374;2023-06-24T12:44:44;15.57;;;9.40;;
31872;SDS011;22407;42.820;23.374;2023-06-24T12:47:09;13.70;;;9.73;;
31872;SDS011;22407;42.820;23.374;2023-06-24T12:49:34;16.00;;;10.83;;
31872;SDS011;22407;42.820;23.374;2023-06-24T12:52:00;13.38;;;9.70;;
31872;SDS011;22407;42.820;23.374;2023-06-24T12:54:26;14.20;;;9.63;;
31872;SDS011;22407;42.820;23.374;2023-06-24T12:56:51;15.20;;;9.67;;
31872;SDS011;22407;42.820;23.374;2023-06-24T12:59:16;12.77;;;8.70;;
31872;SDS011;22407;42.820;23.374;2023-06-24T13:01:41;18.40;;;9.83;;
31872;SDS011;22407;42.820;23.374;2023-06-24T13:04:09;21.63;;;10.00;;
31872;SDS011;22407;42.820;23.374;2023-06-24T13:06:35;16.73;;;9.82;;
31872;SDS011;22407;42.820;23.374;2023-06-24T13:09:00;15.43;;;9.83;;
31872;SDS011;22407;42.820;23.374;2023-06-24T13:11:25;17.03;;;10.57;;
31872;SDS011;22407;42.820;23.374;2023-06-24T13:13:51;19.00;;;10.30;;
31872;SDS011;22407;42.820;23.374;2023-06-24T13:16:16;53.80;;;10.50;;
31872;SDS011;22407;42.820;23.374;2023-06-24T13:18:41;20.07;;;8.47;;
31872;SDS011;22407;42.820;23.374;2023-06-24T13:21:06;15.67;;;5.60;;
31872;SDS011;22407;42.820;23.374;2023-06-24T13:23:32;16.47;;;5.30;;
31872;SDS011;22407;42.820;23.374;2023-06-24T13:25:58;13.68;;;6.40;;
31872;SDS011;22407;42.820;23.374;2023-06-24T13:28:24;29.13;;;11.07;;
31872;SDS011;22407;42.820;23.374;2023-06-24T13:35:44;26.33;;;7.97;;
31872;SDS011;22407;42.820;23.374;2023-06-24T13:38:09;39.60;;;17.30;;
31872;SDS011;22407;42.820;23.374;2023-06-24T13:40:37;45.17;;;19.95;;
31872;SDS011;22407;42.820;23.374;2023-06-24T13:43:02;29.17;;;14.00;;
31872;SDS011;22407;42.820;23.374;2023-06-24T16:22:14;28.10;;;15.83;;
31872;SDS011;22407;42.820;23.374;2023-06-24T16:24:46;28.52;;;15.25;;
31872;SDS011;22407;42.820;23.374;2023-06-24T16:27:11;26.70;;;13.60;;
31872;SDS011;22407;42.820;23.374;2023-06-24T16:29:36;26.23;;;13.47;;
31872;SDS011;22407;42.820;23.374;2023-06-24T16:32:01;27.80;;;14.90;;
31872;SDS011;22407;42.820;23.374;2023-06-24T16:34:27;28.97;;;14.30;;
31872;SDS011;22407;42.820;23.374;2023-06-24T16:36:52;25.30;;;13.70;;
31872;SDS011;22407;42.820;23.374;2023-06-24T16:39:18;25.60;;;13.17;;
31872;SDS011;22407;42.820;23.374;2023-06-24T16:41:43;23.23;;;12.77;;
31872;SDS011;22407;42.820;23.374;2023-06-24T16:44:09;21.77;;;11.45;;
31872;SDS011;22407;42.820;23.374;2023-06-24T16:46:34;23.57;;;11.47;;
31872;SDS011;22407;42.820;23.374;2023-06-24T16:49:00;25.10;;;13.73;;
31872;SDS011;22407;42.820;23.374;2023-06-24T16:51:31;24.92;;;12.00;;
31872;SDS011;22407;42.820;23.374;2023-06-24T16:53:56;19.97;;;10.90;;
31872;SDS011;22407;42.820;23.374;2023-06-24T16:56:21;21.60;;;10.87;;
31872;SDS011;22407;42.820;23.374;2023-06-24T16:58:47;25.40;;;10.87;;
31872;SDS011;22407;42.820;23.374;2023-06-24T17:01:12;23.38;;;12.07;;
31872;SDS011;22407;42.820;23.374;2023-06-24T17:03:38;22.17;;;10.77;;
31872;SDS011;22407;42.820;23.374;2023-06-24T17:06:04;22.73;;;10.70;;
31872;SDS011;22407;42.820;23.374;2023-06-24T17:08:30;18.55;;;10.30;;
31872;SDS011;22407;42.820;23.374;2023-06-24T17:10:55;23.00;;;11.57;;
31872;SDS011;22407;42.820;23.374;2023-06-24T17:13:21;21.97;;;11.40;;